Time;durP1;ratioP1;P1;durP2;ratioP2;P2;SDS_P1;SDS_P2;PMS_P1;PMS_P2;Temp;Humidity;BMP_temperature;BMP_pressure;BME280_temperature;BME280_humidity;BME280_pressure;Samples;Min_cycle;Max_cycle;Signal;HPM_P1;HPM_P2
2021/12/22 00:01:49;;;;;;;17.63;6.83;;;;;;;-1.17;100.00;101497.88;10538865;28;20246;-66
2021/12/22 00:06:52;;;;;;;15.87;6.80;;;;;;;-1.07;100.00;101507.75;10539962;28;20318;-69
2021/12/22 00:11:56;;;;;;;21.33;7.97;;;;;;;-1.02;100.00;101502.94;10581210;28;20699;-63
2021/12/22 00:17:03;;;;;;;18.60;8.23;;;;;;;-1.08;100.00;101500.94;10581388;28;20225;-64
2021/12/22 00:22:07;;;;;;;16.53;7.50;;;;;;;-1.09;100.00;101505.94;10581535;28;20301;-62
2021/12/22 00:27:10;;;;;;;15.67;7.27;;;;;;;-1.16;100.00;101512.38;10580925;28;20214;-65
2021/12/22 00:32:16;;;;;;;17.13;7.87;;;;;;;-1.25;100.00;101509.31;10581661;28;20310;-66
2021/12/22 00:37:22;;;;;;;16.63;7.97;;;;;;;-1.16;100.00;101517.47;10580808;28;20215;-66
2021/12/22 00:42:26;;;;;;;18.00;7.80;;;;;;;-1.11;100.00;101522.81;10580757;28;20547;-66
2021/12/22 00:47:32;;;;;;;18.43;7.77;;;;;;;-1.08;100.00;101518.75;10580957;28;20233;-64
2021/12/22 00:52:35;;;;;;;16.73;8.33;;;;;;;-1.19;100.00;101512.19;10580337;28;20226;-64
2021/12/22 00:57:39;;;;;;;16.57;8.57;;;;;;;-1.31;100.00;101514.94;10580625;28;20702;-66
2021/12/22 01:02:44;;;;;;;16.63;8.90;;;;;;;-1.27;100.00;101519.41;10579447;28;20567;-68
2021/12/22 01:07:50;;;;;;;14.90;7.97;;;;;;;-1.23;100.00;101516.25;10571774;28;20287;-66
2021/12/22 01:12:55;;;;;;;16.60;8.67;;;;;;;-1.33;100.00;101525.84;10537903;28;20302;-64
2021/12/22 01:18:05;;;;;;;16.93;8.80;;;;;;;-1.34;100.00;101530.06;10543945;28;20225;-66
2021/12/22 01:23:09;;;;;;;23.13;9.40;;;;;;;-1.27;100.00;101523.63;10545393;28;20215;-69
2021/12/22 01:28:14;;;;;;;17.17;8.40;;;;;;;-1.34;100.00;101534.25;10544892;28;20225;-66
2021/12/22 01:33:19;;;;;;;18.43;9.23;;;;;;;-1.34;100.00;101529.16;10545075;28;20222;-66
2021/12/22 01:38:22;;;;;;;18.00;9.50;;;;;;;-1.41;100.00;101539.78;10544734;28;20219;-63
2021/12/22 01:43:26;;;;;;;19.00;9.03;;;;;;;-1.42;100.00;101545.69;10544594;28;20219;-70
2021/12/22 01:54:08;;;;;;;16.63;8.40;;;;;;;-1.41;100.00;101561.03;10544793;28;20227;-68
2021/12/22 01:59:11;;;;;;;18.17;8.10;;;;;;;-1.44;100.00;101565.09;10545030;28;20219;-65
2021/12/22 02:04:16;;;;;;;16.27;8.03;;;;;;;-1.42;100.00;101569.50;10543428;28;20610;-64
2021/12/22 02:09:35;;;;;;;17.03;8.50;;;;;;;-1.40;100.00;101565.34;10544035;28;20215;-69
2021/12/22 02:14:40;;;;;;;17.10;9.37;;;;;;;-1.50;100.00;101567.31;10501283;28;20720;-65
2021/12/22 02:19:45;;;;;;;15.57;8.27;;;;;;;-1.55;100.00;101566.13;10502092;28;20756;-66
2021/12/22 02:24:51;;;;;;;17.00;8.67;;;;;;;-1.51;100.00;101555.34;10504109;28;20231;-64
2021/12/22 02:29:59;;;;;;;16.83;8.77;;;;;;;-1.48;100.00;101561.50;10503730;28;20219;-67
2021/12/22 02:35:05;;;;;;;17.20;8.97;;;;;;;-1.53;100.00;101556.91;10503854;28;20230;-67
2021/12/22 02:40:13;;;;;;;19.37;9.13;;;;;;;-1.40;100.00;101561.94;10503448;28;20635;-72
2021/12/22 02:45:19;;;;;;;15.83;9.03;;;;;;;-1.46;100.00;101554.81;10503564;28;20224;-65
2021/12/22 02:50:24;;;;;;;18.53;9.10;;;;;;;-1.45;100.00;101551.47;10503169;28;20212;-66
2021/12/22 02:55:31;;;;;;;16.93;8.67;;;;;;;-1.48;100.00;101548.75;10502908;28;20224;-65
2021/12/22 03:00:47;;;;;;;19.83;9.87;;;;;;;-1.44;100.00;101554.91;10502641;28;20230;-68
2021/12/22 03:05:52;;;;;;;21.30;10.20;;;;;;;-1.69;100.00;101567.03;10502372;28;20558;-63
2021/12/22 03:10:56;;;;;;;19.43;9.67;;;;;;;-1.75;100.00;101564.13;10502023;28;20539;-66
2021/12/22 03:15:59;;;;;;;19.07;9.63;;;;;;;-1.61;100.00;101573.44;10502064;28;20212;-66
2021/12/22 03:21:15;;;;;;;18.20;10.00;;;;;;;-1.58;100.00;101573.59;10501884;28;20220;-65
2021/12/22 03:26:20;;;;;;;17.47;7.83;;;;;;;-1.47;100.00;101567.47;10501693;28;20223;-67
2021/12/22 03:31:23;;;;;;;22.30;9.93;;;;;;;-1.63;100.00;101580.09;10501487;28;20665;-66
2021/12/22 03:36:28;;;;;;;27.77;12.33;;;;;;;-1.80;100.00;101583.31;10501593;28;20223;-66
2021/12/22 03:41:31;;;;;;;20.77;10.00;;;;;;;-1.64;100.00;101580.91;10500606;28;20250;-63
2021/12/22 03:46:35;;;;;;;18.97;9.23;;;;;;;-1.62;100.00;101587.81;10501047;28;20212;-66
2021/12/22 03:51:40;;;;;;;18.43;8.97;;;;;;;-1.57;100.00;101591.50;10500719;28;20641;-68
2021/12/22 03:56:44;;;;;;;18.63;9.07;;;;;;;-1.72;100.00;101599.91;10501075;28;20303;-67
2021/12/22 04:01:48;;;;;;;18.77;9.47;;;;;;;-1.81;100.00;101605.34;10500498;28;20220;-65
2021/12/22 04:06:53;;;;;;;19.43;10.37;;;;;;;-1.93;100.00;101599.53;10500653;28;20218;-66
2021/12/22 04:11:56;;;;;;;16.73;8.30;;;;;;;-1.76;100.00;101606.47;10500474;28;20717;-67
2021/12/22 04:17:00;;;;;;;16.00;8.40;;;;;;;-1.70;100.00;101605.97;10500857;28;20234;-69
2021/12/22 04:22:06;;;;;;;15.27;7.57;;;;;;;-1.80;100.00;101596.94;10500192;28;20234;-69
2021/12/22 04:27:09;;;;;;;16.20;7.43;;;;;;;-1.75;100.00;101594.66;10500177;28;20222;-65
2021/12/22 04:32:12;;;;;;;17.10;7.63;;;;;;;-1.70;100.00;101594.13;10500158;28;20223;-68
2021/12/22 04:37:17;;;;;;;15.47;8.43;;;;;;;-1.71;100.00;101596.59;10500485;28;20554;-68
2021/12/22 04:42:20;;;;;;;14.83;7.70;;;;;;;-1.62;100.00;101592.91;10500042;28;20232;-66
2021/12/22 04:47:23;;;;;;;15.77;7.60;;;;;;;-1.62;100.00;101598.00;10499717;28;20307;-70
2021/12/22 04:52:32;;;;;;;20.87;7.73;;;;;;;-1.70;100.00;101599.22;10504930;28;20242;-65
2021/12/22 04:57:35;;;;;;;19.40;8.90;;;;;;;-1.72;100.00;101592.28;10507715;28;20212;-66
2021/12/22 05:02:39;;;;;;;15.73;7.70;;;;;;;-1.61;100.00;101597.22;10507307;28;20250;-68
2021/12/22 05:07:44;;;;;;;18.00;8.37;;;;;;;-1.64;100.00;101608.88;10507161;28;20216;-66
2021/12/22 05:12:48;;;;;;;17.73;8.70;;;;;;;-1.90;100.00;101611.56;10507833;28;20249;-67
2021/12/22 05:18:20;;;;;;;19.67;8.43;;;;;;;-1.79;100.00;101615.59;10506801;28;20212;-67
2021/12/22 05:23:25;;;;;;;15.53;8.23;;;;;;;-1.57;100.00;101611.00;10506776;28;20220;-70
2021/12/22 05:28:28;;;;;;;18.17;8.40;;;;;;;-1.59;100.00;101610.03;10506184;28;20220;-68
2021/12/22 05:33:31;;;;;;;16.53;7.90;;;;;;;-1.65;100.00;101618.19;10506408;28;20234;-65
2021/12/22 05:38:36;;;;;;;16.43;8.10;;;;;;;-1.55;100.00;101632.28;10506180;28;20216;-65
2021/12/22 05:43:39;;;;;;;14.57;7.20;;;;;;;-1.61;100.00;101639.59;10505901;28;20299;-67
2021/12/22 05:48:42;;;;;;;14.20;7.20;;;;;;;-1.54;100.00;101644.25;10505550;28;20220;-66
2021/12/22 05:53:47;;;;;;;14.97;7.37;;;;;;;-1.47;100.00;101648.91;10505138;28;20220;-63
2021/12/22 05:58:50;;;;;;;13.23;7.53;;;;;;;-1.45;100.00;101654.97;10505139;28;20216;-66
2021/12/22 06:03:53;;;;;;;15.70;7.83;;;;;;;-1.47;100.00;101666.72;10504176;28;20739;-69
2021/12/22 06:08:58;;;;;;;14.10;7.67;;;;;;;-1.56;100.00;101669.63;10504592;28;20262;-66
2021/12/22 06:14:02;;;;;;;13.27;7.67;;;;;;;-1.44;100.00;101675.44;10504188;28;20611;-70
2021/12/22 06:19:09;;;;;;;12.63;7.63;;;;;;;-1.35;100.00;101693.75;10504648;28;20235;-69
2021/12/22 06:24:14;;;;;;;14.23;7.87;;;;;;;-1.38;100.00;101703.78;10504550;28;20220;-66
2021/12/22 06:29:17;;;;;;;17.23;8.43;;;;;;;-1.49;100.00;101711.56;10504031;28;20220;-67
2021/12/22 06:34:20;;;;;;;15.97;8.00;;;;;;;-1.39;100.00;101704.56;10503885;28;20230;-64
2021/12/22 06:39:25;;;;;;;17.53;9.83;;;;;;;-1.43;100.00;101705.16;10174028;27;10000642;-67
2021/12/22 06:44:28;;;;;;;18.03;9.87;;;;;;;-1.31;100.00;101710.09;10541958;28;20665;-76
2021/12/22 06:49:31;;;;;;;18.87;9.67;;;;;;;-1.26;100.00;101714.66;10541858;28;20211;-67
2021/12/22 06:54:36;;;;;;;19.60;10.33;;;;;;;-1.24;100.00;101714.75;10541662;28;20246;-64
2021/12/22 06:59:39;;;;;;;22.07;11.00;;;;;;;-1.33;100.00;101720.19;10535927;28;20211;-69
2021/12/22 07:04:43;;;;;;;18.27;9.93;;;;;;;-1.21;100.00;101715.81;10540932;28;20228;-65
2021/12/22 07:09:47;;;;;;;17.23;9.50;;;;;;;-1.21;100.00;101726.00;10540790;28;20215;-69
2021/12/22 07:14:51;;;;;;;18.33;8.83;;;;;;;-1.25;100.00;101720.66;10539811;28;20229;-65
2021/12/22 07:19:54;;;;;;;17.73;9.60;;;;;;;-1.20;100.00;101732.88;10540206;28;20215;-65
2021/12/22 07:25:00;;;;;;;19.57;9.10;;;;;;;-1.09;100.00;101725.84;10540396;28;20230;-67
2021/12/22 07:30:05;;;;;;;17.30;9.50;;;;;;;-1.07;100.00;101734.44;10540140;28;20300;-67
2021/12/22 07:35:11;;;;;;;17.33;9.73;;;;;;;-1.07;100.00;101739.53;10540324;28;20290;-67
2021/12/22 07:40:19;;;;;;;17.73;10.20;;;;;;;-1.15;100.00;101745.84;10540058;28;20708;-73
2021/12/22 07:45:24;;;;;;;19.73;10.60;;;;;;;-1.07;100.00;101749.72;10539637;28;20540;-70
2021/12/22 07:50:27;;;;;;;19.70;10.30;;;;;;;-0.99;100.00;101747.63;10539564;28;20564;-66
2021/12/22 07:55:32;;;;;;;26.60;11.17;;;;;;;-0.89;100.00;101750.81;10539755;28;20220;-71
2021/12/22 08:00:41;;;;;;;20.03;9.77;;;;;;;-1.05;100.00;101757.47;10539203;28;20566;-67
2021/12/22 08:05:45;;;;;;;17.53;10.13;;;;;;;-0.96;100.00;101756.31;10538314;28;20237;-67
2021/12/22 08:10:50;;;;;;;18.63;10.17;;;;;;;-0.98;100.00;101757.06;10538814;28;20188;-68
2021/12/22 08:15:53;;;;;;;21.50;11.07;;;;;;;-0.96;100.00;101763.97;10539492;28;20222;-71
2021/12/22 08:20:57;;;;;;;19.97;11.10;;;;;;;-0.92;100.00;101757.38;10539064;28;20202;-68
2021/12/22 08:26:02;;;;;;;20.30;12.10;;;;;;;-1.09;100.00;101760.63;10543737;28;20195;-69
2021/12/22 08:31:05;;;;;;;24.37;11.67;;;;;;;-1.16;100.00;101755.16;10547196;28;20217;-66
2021/12/22 08:41:33;;;;;;;28.23;13.37;;;;;;;-1.08;100.00;101752.19;10567596;28;20583;-67
2021/12/22 08:46:37;;;;;;;20.00;10.50;;;;;;;-1.03;100.00;101753.31;10546494;28;20684;-66
2021/12/22 08:51:41;;;;;;;21.03;11.50;;;;;;;-0.93;100.00;101758.19;10546323;28;20243;-65
2021/12/22 08:56:47;;;;;;;20.77;11.90;;;;;;;-0.95;100.00;101742.81;10546312;28;20294;-63
2021/12/22 09:01:51;;;;;;;23.43;12.73;;;;;;;-0.99;100.00;101755.28;10545740;28;20230;-64
2021/12/22 09:06:55;;;;;;;28.17;13.40;;;;;;;-0.92;100.00;101750.63;10545708;28;20223;-67
2021/12/22 09:11:59;;;;;;;25.60;12.53;;;;;;;-0.71;100.00;101764.63;10545656;28;20270;-66
2021/12/22 09:17:03;;;;;;;24.73;11.93;;;;;;;-0.85;100.00;101777.34;10545361;28;20264;-66
2021/12/22 09:22:07;;;;;;;23.10;11.43;;;;;;;-0.78;100.00;101785.44;10545158;28;20782;-66
2021/12/22 09:27:14;;;;;;;21.83;12.47;;;;;;;-0.67;100.00;101786.91;10545776;28;20766;-68
2021/12/22 09:32:18;;;;;;;22.80;12.57;;;;;;;-0.67;100.00;101792.00;10544603;28;20291;-64
2021/12/22 09:37:21;;;;;;;27.60;13.67;;;;;;;-0.48;100.00;101793.94;10544169;28;20656;-67
2021/12/22 09:42:25;;;;;;;26.03;13.17;;;;;;;-0.47;100.00;101788.94;10544141;28;20230;-66
2021/12/22 09:47:36;;;;;;;29.63;14.37;;;;;;;-0.54;100.00;101791.03;10544064;28;20229;-67
2021/12/22 09:52:40;;;;;;;22.93;12.73;;;;;;;-0.88;100.00;101785.66;10543903;28;20213;-64
2021/12/22 09:57:46;;;;;;;26.67;13.67;;;;;;;-0.92;100.00;101788.84;10543666;28;20233;-67
2021/12/22 10:02:49;;;;;;;29.17;13.87;;;;;;;-0.75;100.00;101790.69;10543527;28;20734;-67
2021/12/22 10:08:05;;;;;;;25.13;13.70;;;;;;;-0.73;100.00;101778.03;10543326;28;20673;-65
2021/12/22 10:13:12;;;;;;;24.47;11.77;;;;;;;-0.51;100.00;101766.59;10543042;28;20214;-65
2021/12/22 10:18:17;;;;;;;28.47;12.93;;;;;;;-0.61;100.00;101766.88;10543398;28;20211;-67
2021/12/22 10:23:23;;;;;;;20.93;10.90;;;;;;;-0.62;100.00;101765.09;10542745;28;20572;-66
2021/12/22 10:28:30;;;;;;;24.63;12.10;;;;;;;-0.62;100.00;101777.84;10542705;28;20229;-65
2021/12/22 10:33:33;;;;;;;23.90;11.90;;;;;;;-0.62;100.00;101771.91;10542223;28;20518;-62
2021/12/22 10:38:36;;;;;;;19.60;11.40;;;;;;;-0.55;100.00;101768.91;10542281;28;20219;-67
2021/12/22 10:43:44;;;;;;;22.10;11.07;;;;;;;-0.49;100.00;101767.56;10542041;28;20219;-64
2021/12/22 10:54:10;;;;;;;24.00;11.50;;;;;;;-0.53;100.00;101765.63;10541379;28;20227;-69
2021/12/22 10:59:17;;;;;;;23.27;10.73;;;;;;;-0.45;100.00;101766.94;10542797;28;20560;-68
2021/12/22 11:04:25;;;;;;;20.20;10.53;;;;;;;-0.38;100.00;101758.84;10544061;28;20687;-65
2021/12/22 11:09:34;;;;;;;19.60;9.83;;;;;;;-0.52;100.00;101754.63;10544119;28;20225;-63
2021/12/22 11:14:44;;;;;;;21.83;10.43;;;;;;;-0.27;100.00;101757.78;10543753;28;20234;-71
2021/12/22 11:19:53;;;;;;;20.70;10.33;;;;;;;-0.28;100.00;101763.69;10541179;28;20254;-68
2021/12/22 11:24:56;;;;;;;23.80;12.57;;;;;;;-0.38;100.00;101763.94;10543159;28;20215;-67
2021/12/22 11:30:02;;;;;;;26.10;12.10;;;;;;;-0.50;100.00;101762.41;10543110;28;20664;-63
2021/12/22 11:35:09;;;;;;;25.27;12.87;;;;;;;-0.52;100.00;101769.06;10542746;28;20226;-66
2021/12/22 11:40:16;;;;;;;28.13;13.53;;;;;;;-0.47;100.00;101772.75;10543118;28;20215;-66
2021/12/22 11:45:23;;;;;;;29.57;13.23;;;;;;;-0.75;100.00;101764.31;10543043;28;20371;-68
2021/12/22 11:50:29;;;;;;;23.37;11.97;;;;;;;-0.62;100.00;101762.56;10542890;28;20234;-69
2021/12/22 11:55:40;;;;;;;23.83;12.97;;;;;;;-0.49;100.00;101759.03;10542346;28;20219;-68
2021/12/22 12:00:45;;;;;;;26.70;13.67;;;;;;;-0.35;100.00;101764.13;10542210;28;20295;-70
2021/12/22 12:06:06;;;;;;;25.83;12.43;;;;;;;-0.52;100.00;101763.97;10542257;28;20230;-67
2021/12/22 12:11:14;;;;;;;24.00;11.53;;;;;;;-0.43;100.00;101772.16;10542356;28;20302;-66
2021/12/22 12:21:51;;;;;;;25.40;12.33;;;;;;;-0.51;100.00;101750.41;10542014;28;20604;-66
2021/12/22 12:26:54;;;;;;;24.50;12.63;;;;;;;-0.77;100.00;101754.06;10541616;28;20226;-65
2021/12/22 12:31:59;;;;;;;26.97;14.33;;;;;;;-0.71;100.00;101764.63;10541921;28;20219;-63
2021/12/22 12:37:06;;;;;;;29.60;12.93;;;;;;;-0.64;100.00;101759.03;10541643;28;20306;-65
2021/12/22 12:42:09;;;;;;;25.73;12.57;;;;;;;-0.56;100.00;101768.03;10541596;28;20311;-68
2021/12/22 12:47:21;;;;;;;27.90;14.27;;;;;;;-0.50;100.00;101770.03;10499581;28;20261;-68
2021/12/22 12:52:28;;;;;;;27.27;13.27;;;;;;;-0.63;100.00;101765.91;10500984;28;20231;-63
2021/12/22 12:57:32;;;;;;;26.47;12.43;;;;;;;-0.50;100.00;101763.25;10541163;28;20716;-65
2021/12/22 13:02:37;;;;;;;28.00;13.70;;;;;;;-0.46;100.00;101770.28;10540564;28;20637;-70
2021/12/22 13:07:42;;;;;;;25.27;13.13;;;;;;;-0.66;100.00;101770.84;10541064;28;20234;-72
2021/12/22 13:13:01;;;;;;;23.33;12.10;;;;;;;-0.77;100.00;101782.09;10544459;28;20233;-69
2021/12/22 13:18:12;;;;;;;24.93;13.00;;;;;;;-0.73;100.00;101784.03;10549046;28;20214;-68
2021/12/22 13:23:18;;;;;;;25.70;12.17;;;;;;;-0.69;100.00;101777.44;10548073;28;20534;-66
2021/12/22 13:28:23;;;;;;;27.90;14.57;;;;;;;-0.68;100.00;101782.63;10548308;28;20237;-68
2021/12/22 13:33:31;;;;;;;27.13;13.50;;;;;;;-0.58;100.00;101786.56;10547968;28;20313;-68
2021/12/22 13:38:37;;;;;;;25.13;13.17;;;;;;;-0.53;100.00;101773.28;10548163;28;20311;-65
2021/12/22 13:43:43;;;;;;;26.87;13.03;;;;;;;-0.61;100.00;101784.72;10547372;28;20216;-66
2021/12/22 13:48:54;;;;;;;72.00;38.53;;;;;;;-0.88;100.00;101788.22;10547133;28;20246;-69
2021/12/22 13:53:58;;;;;;;24.67;11.80;;;;;;;-0.95;100.00;101781.03;10547219;28;20290;-69
2021/12/22 13:59:04;;;;;;;25.50;13.07;;;;;;;-0.88;100.00;101780.56;10547447;28;20245;-70
2021/12/22 14:04:15;;;;;;;25.43;12.47;;;;;;;-0.85;100.00;101780.78;10546230;28;20291;-69
2021/12/22 14:09:21;;;;;;;24.90;13.50;;;;;;;-0.98;100.00;101775.75;10545565;28;20755;-65
2021/12/22 14:14:48;;;;;;;29.10;12.97;;;;;;;-0.91;100.00;101780.41;10546219;28;20227;-70
2021/12/22 14:20:03;;;;;;;25.50;12.70;;;;;;;-0.95;100.00;101775.94;10546334;28;20243;-64
2021/12/22 14:25:09;;;;;;;26.90;13.00;;;;;;;-0.92;100.00;101782.88;10545379;28;20239;-69
2021/12/22 14:30:26;;;;;;;27.00;13.20;;;;;;;-0.96;100.00;101784.34;10545855;28;20307;-69
2021/12/22 14:35:34;;;;;;;26.97;13.60;;;;;;;-0.92;100.00;101783.75;10545709;28;20239;-68
2021/12/22 14:40:39;;;;;;;28.30;13.80;;;;;;;-0.89;100.00;101786.47;10545409;28;20302;-64
2021/12/22 14:45:47;;;;;;;25.63;13.13;;;;;;;-0.87;100.00;101787.44;10544372;28;20233;-66
2021/12/22 14:51:01;;;;;;;30.57;14.60;;;;;;;-0.86;100.00;101781.53;10544220;28;20239;-65
2021/12/22 14:56:07;;;;;;;28.13;13.33;;;;;;;-0.94;100.00;101784.44;10189696;27;9999867;-65
2021/12/22 15:01:12;;;;;;;23.87;12.30;;;;;;;-0.92;100.00;101796.50;10541555;28;20290;-70
2021/12/22 15:06:35;;;;;;;21.10;12.37;;;;;;;-0.86;100.00;101790.88;10541438;28;20243;-64
2021/12/22 15:11:40;;;;;;;27.57;13.93;;;;;;;-0.89;100.00;101795.78;10541330;28;20325;-64
2021/12/22 15:16:43;;;;;;;28.33;12.93;;;;;;;-0.93;100.00;101796.41;10540544;28;20234;-66
2021/12/22 15:21:48;;;;;;;28.93;13.23;;;;;;;-1.09;100.00;101786.97;10541054;28;20225;-70
2021/12/22 15:26:51;;;;;;;29.33;12.90;;;;;;;-1.02;100.00;101798.41;10539754;28;20306;-66
2021/12/22 15:31:54;;;;;;;31.87;15.07;;;;;;;-1.01;100.00;101800.16;10540130;28;20633;-64
2021/12/22 15:37:00;;;;;;;24.23;12.07;;;;;;;-0.94;100.00;101802.28;10539892;28;20360;-70
2021/12/22 15:42:06;;;;;;;22.10;11.93;;;;;;;-0.82;100.00;101793.69;10540193;28;20518;-65
2021/12/22 15:47:10;;;;;;;26.10;12.07;;;;;;;-1.14;100.00;101788.38;10540492;28;20223;-71
2021/12/22 15:52:15;;;;;;;21.27;11.57;;;;;;;-1.03;100.00;101789.00;10539373;28;20225;-69
2021/12/22 15:57:20;;;;;;;26.93;12.17;;;;;;;-0.97;100.00;101785.16;10539417;28;20238;-66
2021/12/22 16:02:23;;;;;;;23.43;12.07;;;;;;;-0.98;100.00;101785.94;10539081;28;20306;-67
2021/12/22 16:07:28;;;;;;;17.70;9.27;;;;;;;-1.08;100.00;101793.81;10541751;28;20243;-65
2021/12/22 16:12:31;;;;;;;23.90;10.53;;;;;;;-1.06;100.00;101787.16;10541416;28;20298;-69
2021/12/22 16:17:35;;;;;;;17.63;8.47;;;;;;;-1.03;100.00;101789.88;10542432;28;20241;-67
2021/12/22 16:22:40;;;;;;;19.77;9.70;;;;;;;-0.99;100.00;101784.19;10542124;28;20215;-66
2021/12/22 16:27:43;;;;;;;17.77;9.53;;;;;;;-1.37;100.00;101786.13;10541530;28;20328;-69
2021/12/22 16:32:48;;;;;;;18.37;8.27;;;;;;;-1.30;100.00;101785.72;10539734;28;20211;-71
2021/12/22 16:37:53;;;;;;;19.87;8.67;;;;;;;-1.33;100.00;101791.47;10538428;28;20234;-65
2021/12/22 16:42:56;;;;;;;23.50;11.77;;;;;;;-1.27;100.00;101803.69;10536165;28;20212;-65
2021/12/22 16:48:00;;;;;;;20.33;10.00;;;;;;;-1.09;100.00;101792.09;10542427;28;20226;-67
2021/12/22 16:53:06;;;;;;;20.57;10.47;;;;;;;-1.10;100.00;101786.91;10545983;28;20211;-67
2021/12/22 16:58:11;;;;;;;19.33;9.77;;;;;;;-1.01;100.00;101789.97;10546198;28;20223;-67
2021/12/22 17:03:14;;;;;;;18.57;9.07;;;;;;;-1.07;100.00;101790.47;10575114;28;20235;-66
2021/12/22 17:08:19;;;;;;;20.40;10.50;;;;;;;-1.02;100.00;101794.19;10546017;28;20307;-66
2021/12/22 17:13:22;;;;;;;20.83;10.27;;;;;;;-1.12;100.00;101786.78;10544747;28;20243;-68
2021/12/22 17:18:26;;;;;;;18.73;9.70;;;;;;;-1.13;100.00;101787.59;10544324;28;20230;-66
2021/12/22 17:23:30;;;;;;;25.03;12.40;;;;;;;-1.16;100.00;101777.22;10545273;28;20294;-66
2021/12/22 17:28:39;;;;;;;19.37;9.80;;;;;;;-1.17;100.00;101780.53;10545269;28;20559;-67
2021/12/22 17:33:43;;;;;;;23.13;10.37;;;;;;;-1.26;100.00;101773.25;10545103;28;20308;-66
2021/12/22 17:38:48;;;;;;;22.40;11.90;;;;;;;-1.40;100.00;101779.16;10544497;28;20223;-64
2021/12/22 17:43:54;;;;;;;22.73;11.03;;;;;;;-1.51;100.00;101776.78;10544846;28;20212;-66
2021/12/22 17:48:57;;;;;;;24.90;11.93;;;;;;;-1.46;100.00;101780.47;10544393;28;20237;-66
2021/12/22 17:54:02;;;;;;;31.33;14.73;;;;;;;-1.39;100.00;101780.94;10559255;28;20211;-72
2021/12/22 17:59:05;;;;;;;24.13;11.47;;;;;;;-1.44;100.00;101773.81;10585623;28;20223;-68
2021/12/22 18:04:10;;;;;;;27.63;11.87;;;;;;;-1.60;100.00;101768.56;10585818;28;20549;-68
2021/12/22 18:09:16;;;;;;;31.40;12.90;;;;;;;-1.59;100.00;101778.00;10585930;28;20313;-66
2021/12/22 18:14:19;;;;;;;31.67;13.03;;;;;;;-1.63;100.00;101778.56;10585350;28;20222;-69
2021/12/22 18:19:23;;;;;;;26.63;13.80;;;;;;;-1.76;100.00;101771.84;10585250;28;20306;-65
2021/12/22 18:24:28;;;;;;;33.13;14.80;;;;;;;-1.66;100.00;101768.22;10585309;28;20246;-70
2021/12/22 18:29:31;;;;;;;32.20;14.23;;;;;;;-1.55;100.00;101777.38;10572672;28;20195;-68
2021/12/22 18:34:36;;;;;;;29.90;14.23;;;;;;;-1.72;100.00;101768.72;10541943;28;20203;-66
2021/12/22 18:39:46;;;;;;;29.70;14.33;;;;;;;-1.69;100.00;101762.94;10540194;28;20218;-68
2021/12/22 18:44:50;;;;;;;28.27;14.10;;;;;;;-1.67;100.00;101767.34;10540965;28;20594;-67
2021/12/22 18:49:53;;;;;;;41.37;16.27;;;;;;;-1.78;100.00;101765.81;10541756;28;20191;-71
2021/12/22 18:54:58;;;;;;;30.17;14.67;;;;;;;-1.85;100.00;101766.22;10541323;28;20187;-70
2021/12/22 19:00:01;;;;;;;40.60;16.40;;;;;;;-1.97;100.00;101759.50;10541308;28;20344;-65
2021/12/22 19:05:05;;;;;;;33.07;15.87;;;;;;;-2.02;100.00;101763.41;10541836;28;20669;-66
2021/12/22 19:10:11;;;;;;;39.53;17.17;;;;;;;-2.06;100.00;101762.34;10543254;28;20199;-64
2021/12/22 19:15:15;;;;;;;31.47;16.50;;;;;;;-2.04;100.00;101768.41;10544185;28;20211;-63
2021/12/22 19:20:19;;;;;;;39.27;17.53;;;;;;;-2.13;100.00;101759.31;10544027;28;20223;-69
2021/12/22 19:25:25;;;;;;;38.20;17.37;;;;;;;-2.15;100.00;101758.31;10543745;28;20558;-67
2021/12/22 19:30:29;;;;;;;37.60;18.03;;;;;;;-2.15;100.00;101754.13;10543509;28;20223;-69
2021/12/22 19:35:34;;;;;;;36.90;17.67;;;;;;;-2.11;100.00;101753.56;10543363;28;20591;-67
2021/12/22 19:40:39;;;;;;;37.87;17.10;;;;;;;-2.20;100.00;101744.44;10543343;28;20545;-69
2021/12/22 19:45:42;;;;;;;40.03;18.53;;;;;;;-2.32;100.00;101744.56;10542924;28;20310;-65
2021/12/22 19:50:46;;;;;;;43.27;18.73;;;;;;;-2.51;100.00;101747.63;10542641;28;20211;-64
2021/12/22 19:55:51;;;;;;;39.63;20.37;;;;;;;-2.37;100.00;101735.78;10542810;28;20208;-68
2021/12/22 20:00:55;;;;;;;51.83;22.90;;;;;;;-2.46;100.00;101738.63;10542774;28;20230;-66
2021/12/22 20:05:58;;;;;;;52.90;24.00;;;;;;;-2.50;100.00;101730.69;10542432;28;20262;-68
2021/12/22 20:11:04;;;;;;;51.50;23.87;;;;;;;-2.48;100.00;101740.19;10542230;28;20288;-65
2021/12/22 20:16:08;;;;;;;49.10;23.23;;;;;;;-2.41;100.00;101746.53;10542141;28;20600;-65
2021/12/22 20:21:11;;;;;;;47.97;22.97;;;;;;;-2.36;100.00;101737.53;10541577;28;20230;-67
2021/12/22 20:26:16;;;;;;;51.47;24.73;;;;;;;-2.42;100.00;101742.25;10541880;28;20683;-71
2021/12/22 20:31:19;;;;;;;51.77;24.37;;;;;;;-2.33;100.00;101747.03;10542549;28;20215;-65
2021/12/22 20:36:23;;;;;;;54.13;23.77;;;;;;;-2.30;100.00;101737.03;10541770;28;20211;-63
2021/12/22 20:41:28;;;;;;;55.50;25.77;;;;;;;-2.22;100.00;101720.59;10541815;28;20253;-70
2021/12/22 20:46:31;;;;;;;64.10;27.33;;;;;;;-2.28;100.00;101723.66;10541508;28;20208;-66
2021/12/22 20:51:34;;;;;;;62.13;27.97;;;;;;;-2.41;100.00;101723.66;10541514;28;20302;-67
2021/12/22 20:56:40;;;;;;;53.83;25.57;;;;;;;-2.50;100.00;101723.97;10541459;28;20226;-64
2021/12/22 21:01:45;;;;;;;46.77;23.30;;;;;;;-2.50;100.00;101723.97;10541224;28;20307;-64
2021/12/22 21:06:51;;;;;;;53.20;24.63;;;;;;;-2.41;100.00;101726.19;10541140;28;20272;-70
2021/12/22 21:11:57;;;;;;;43.23;22.67;;;;;;;-2.42;100.00;101712.59;10541194;28;20226;-64
2021/12/22 21:17:00;;;;;;;49.43;23.53;;;;;;;-2.48;100.00;101714.78;10541140;28;20235;-69
2021/12/22 21:22:04;;;;;;;54.97;25.73;;;;;;;-2.53;100.00;101711.06;10541057;28;20208;-65
2021/12/22 21:27:09;;;;;;;53.40;25.20;;;;;;;-2.54;100.00;101714.38;10540354;28;20530;-69
2021/12/22 21:32:12;;;;;;;55.87;23.17;;;;;;;-2.48;100.00;101709.69;10542337;28;20289;-68
2021/12/22 21:37:16;;;;;;;53.70;24.73;;;;;;;-2.48;100.00;101713.88;10548181;28;20238;-66
2021/12/22 21:42:22;;;;;;;60.13;25.73;;;;;;;-2.41;100.00;101716.03;10548183;28;20582;-67
2021/12/22 21:47:26;;;;;;;58.47;25.87;;;;;;;-2.30;100.00;101711.63;10547679;28;20310;-74
2021/12/22 21:52:29;;;;;;;56.93;25.67;;;;;;;-2.30;100.00;101712.50;10547115;28;20222;-68
2021/12/22 21:57:34;;;;;;;52.70;24.67;;;;;;;-2.29;100.00;101704.09;10543781;28;20302;-65
2021/12/22 22:02:41;;;;;;;53.10;25.67;;;;;;;-2.33;100.00;101697.94;10542468;28;20294;-68
2021/12/22 22:07:45;;;;;;;51.87;22.53;;;;;;;-2.29;100.00;101690.50;10543892;28;20306;-71
2021/12/22 22:12:50;;;;;;;50.87;23.47;;;;;;;-2.14;100.00;101686.38;10544114;28;20298;-67
2021/12/22 22:17:54;;;;;;;52.23;24.63;;;;;;;-2.16;100.00;101685.41;10543556;28;20410;-65
2021/12/22 22:22:57;;;;;;;48.07;22.73;;;;;;;-2.20;100.00;101680.91;10543343;28;20223;-71
2021/12/22 22:28:03;;;;;;;47.10;23.00;;;;;;;-2.25;100.00;101672.13;10543295;28;20290;-64
2021/12/22 22:33:06;;;;;;;59.30;24.40;;;;;;;-2.27;100.00;101672.03;10542892;28;20187;-68
2021/12/22 22:38:09;;;;;;;50.80;23.83;;;;;;;-2.24;100.00;101669.66;10542724;28;20217;-72
2021/12/22 22:43:14;;;;;;;57.40;25.57;;;;;;;-2.23;100.00;101661.28;10542284;28;20202;-67
2021/12/22 22:48:20;;;;;;;53.20;24.63;;;;;;;-2.21;100.00;101654.63;10542297;28;20609;-67
2021/12/22 22:53:23;;;;;;;60.37;25.57;;;;;;;-2.23;100.00;101653.66;10542347;28;20227;-70
2021/12/22 22:58:27;;;;;;;50.90;23.90;;;;;;;-2.23;100.00;101652.75;10219999;27;10000400;-68
2021/12/22 23:03:31;;;;;;;50.77;23.70;;;;;;;-2.20;100.00;101650.38;10583693;28;20234;-67